sensor_id;sensor_type;location;lat;lon;timestamp;P1;durP1;ratioP1;P2;durP2;ratioP2
11614;SDS011;5863;52.832;4.758;2023-01-04T00:01:44;5.35;;;2.88;;
11614;SDS011;5863;52.832;4.758;2023-01-04T00:04:11;5.50;;;2.95;;
11614;SDS011;5863;52.832;4.758;2023-01-04T00:06:37;3.45;;;2.42;;
11614;SDS011;5863;52.832;4.758;2023-01-04T00:09:04;5.57;;;2.80;;
11614;SDS011;5863;52.832;4.758;2023-01-04T00:11:32;4.57;;;2.60;;
11614;SDS011;5863;52.832;4.758;2023-01-04T00:13:58;5.10;;;2.78;;
11614;SDS011;5863;52.832;4.758;2023-01-04T00:16:27;3.75;;;2.75;;
11614;SDS011;5863;52.832;4.758;2023-01-04T00:18:54;5.03;;;2.38;;
11614;SDS011;5863;52.832;4.758;2023-01-04T00:21:22;4.13;;;2.70;;
11614;SDS011;5863;52.832;4.758;2023-01-04T00:23:50;5.07;;;2.38;;
11614;SDS011;5863;52.832;4.758;2023-01-04T00:26:19;4.20;;;2.40;;
11614;SDS011;5863;52.832;4.758;2023-01-04T00:28:47;3.85;;;1.83;;
11614;SDS011;5863;52.832;4.758;2023-01-04T00:31:18;5.03;;;2.53;;
11614;SDS011;5863;52.832;4.758;2023-01-04T00:33:46;3.78;;;2.15;;
11614;SDS011;5863;52.832;4.758;2023-01-04T00:36:13;5.00;;;2.20;;
11614;SDS011;5863;52.832;4.758;2023-01-04T00:38:40;3.55;;;2.10;;
11614;SDS011;5863;52.832;4.758;2023-01-04T00:41:08;6.38;;;2.22;;
11614;SDS011;5863;52.832;4.758;2023-01-04T00:43:36;6.00;;;2.00;;
11614;SDS011;5863;52.832;4.758;2023-01-04T00:46:03;5.05;;;2.10;;
11614;SDS011;5863;52.832;4.758;2023-01-04T00:48:31;6.28;;;2.28;;
11614;SDS011;5863;52.832;4.758;2023-01-04T00:50:59;5.43;;;2.15;;
11614;SDS011;5863;52.832;4.758;2023-01-04T00:53:25;7.57;;;2.30;;
11614;SDS011;5863;52.832;4.758;2023-01-04T00:55:57;5.18;;;2.42;;
11614;SDS011;5863;52.832;4.758;2023-01-04T00:58:24;4.30;;;1.98;;
11614;SDS011;5863;52.832;4.758;2023-01-04T01:00:51;3.75;;;2.17;;
11614;SDS011;5863;52.832;4.758;2023-01-04T01:03:18;5.20;;;2.13;;
11614;SDS011;5863;52.832;4.758;2023-01-04T01:05:44;5.25;;;2.10;;
11614;SDS011;5863;52.832;4.758;2023-01-04T01:08:12;6.55;;;2.58;;
11614;SDS011;5863;52.832;4.758;2023-01-04T01:10:51;4.13;;;1.88;;
11614;SDS011;5863;52.832;4.758;2023-01-04T01:13:19;7.05;;;2.28;;
11614;SDS011;5863;52.832;4.758;2023-01-04T01:15:47;4.45;;;2.22;;
11614;SDS011;5863;52.832;4.758;2023-01-04T01:18:14;4.85;;;2.20;;
11614;SDS011;5863;52.832;4.758;2023-01-04T01:20:41;5.32;;;2.58;;
11614;SDS011;5863;52.832;4.758;2023-01-04T01:23:16;6.22;;;2.35;;
11614;SDS011;5863;52.832;4.758;2023-01-04T01:25:44;6.07;;;2.70;;
11614;SDS011;5863;52.832;4.758;2023-01-04T01:28:11;4.63;;;2.53;;
11614;SDS011;5863;52.832;4.758;2023-01-04T01:30:38;14.68;;;3.10;;
11614;SDS011;5863;52.832;4.758;2023-01-04T01:33:09;6.72;;;2.60;;
11614;SDS011;5863;52.832;4.758;2023-01-04T01:35:36;10.30;;;3.10;;
11614;SDS011;5863;52.832;4.758;2023-01-04T01:38:03;8.23;;;2.78;;
11614;SDS011;5863;52.832;4.758;2023-01-04T01:40:31;14.07;;;3.20;;
11614;SDS011;5863;52.832;4.758;2023-01-04T01:42:58;13.45;;;2.92;;
11614;SDS011;5863;52.832;4.758;2023-01-04T01:45:27;9.55;;;3.00;;
11614;SDS011;5863;52.832;4.758;2023-01-04T01:47:57;11.60;;;2.90;;
11614;SDS011;5863;52.832;4.758;2023-01-04T01:50:30;9.75;;;3.28;;
11614;SDS011;5863;52.832;4.758;2023-01-04T01:53:00;9.10;;;3.20;;
11614;SDS011;5863;52.832;4.758;2023-01-04T01:55:27;11.27;;;3.42;;
11614;SDS011;5863;52.832;4.758;2023-01-04T01:57:59;18.23;;;3.70;;
11614;SDS011;5863;52.832;4.758;2023-01-04T02:00:26;15.48;;;3.85;;
11614;SDS011;5863;52.832;4.758;2023-01-04T02:02:56;14.73;;;3.85;;
11614;SDS011;5863;52.832;4.758;2023-01-04T02:05:30;15.98;;;3.88;;
11614;SDS011;5863;52.832;4.758;2023-01-04T02:07:59;12.60;;;3.47;;
11614;SDS011;5863;52.832;4.758;2023-01-04T02:10:27;17.75;;;4.68;;
11614;SDS011;5863;52.832;4.758;2023-01-04T02:12:54;16.27;;;4.18;;
11614;SDS011;5863;52.832;4.758;2023-01-04T02:15:22;16.35;;;4.47;;
11614;SDS011;5863;52.832;4.758;2023-01-04T02:18:00;14.43;;;4.57;;
11614;SDS011;5863;52.832;4.758;2023-01-04T02:20:37;13.73;;;3.88;;
11614;SDS011;5863;52.832;4.758;2023-01-04T02:26:30;21.27;;;4.85;;
11614;SDS011;5863;52.832;4.758;2023-01-04T02:32:13;18.67;;;4.53;;
11614;SDS011;5863;52.832;4.758;2023-01-04T02:34:51;29.88;;;5.88;;
11614;SDS011;5863;52.832;4.758;2023-01-04T02:37:26;22.45;;;4.85;;
11614;SDS011;5863;52.832;4.758;2023-01-04T02:40:03;26.02;;;4.78;;
11614;SDS011;5863;52.832;4.758;2023-01-04T02:42:42;31.92;;;5.28;;
11614;SDS011;5863;52.832;4.758;2023-01-04T02:45:32;22.88;;;4.72;;
11614;SDS011;5863;52.832;4.758;2023-01-04T02:48:05;26.02;;;5.68;;
11614;SDS011;5863;52.832;4.758;2023-01-04T02:50:51;26.08;;;4.93;;
11614;SDS011;5863;52.832;4.758;2023-01-04T02:53:18;29.30;;;4.97;;
11614;SDS011;5863;52.832;4.758;2023-01-04T02:55:50;22.60;;;5.13;;
11614;SDS011;5863;52.832;4.758;2023-01-04T02:58:43;28.15;;;5.72;;
11614;SDS011;5863;52.832;4.758;2023-01-04T03:01:22;25.58;;;5.22;;
11614;SDS011;5863;52.832;4.758;2023-01-04T03:04:24;25.05;;;4.22;;
11614;SDS011;5863;52.832;4.758;2023-01-04T03:07:24;25.80;;;4.85;;
11614;SDS011;5863;52.832;4.758;2023-01-04T03:09:57;25.27;;;4.50;;
11614;SDS011;5863;52.832;4.758;2023-01-04T03:12:30;34.35;;;5.43;;
11614;SDS011;5863;52.832;4.758;2023-01-04T03:15:04;27.20;;;5.47;;
11614;SDS011;5863;52.832;4.758;2023-01-04T03:17:36;26.58;;;5.18;;
11614;SDS011;5863;52.832;4.758;2023-01-04T03:20:10;26.27;;;5.55;;
11614;SDS011;5863;52.832;4.758;2023-01-04T03:22:39;30.25;;;5.82;;
11614;SDS011;5863;52.832;4.758;2023-01-04T03:25:28;39.72;;;6.35;;
11614;SDS011;5863;52.832;4.758;2023-01-04T03:28:15;30.58;;;5.63;;
11614;SDS011;5863;52.832;4.758;2023-01-04T03:31:03;24.90;;;5.75;;
11614;SDS011;5863;52.832;4.758;2023-01-04T03:33:52;34.63;;;5.80;;
11614;SDS011;5863;52.832;4.758;2023-01-04T03:36:43;32.60;;;5.65;;
11614;SDS011;5863;52.832;4.758;2023-01-04T03:39:19;20.65;;;4.65;;
11614;SDS011;5863;52.832;4.758;2023-01-04T03:42:13;28.90;;;6.07;;
11614;SDS011;5863;52.832;4.758;2023-01-04T03:45:10;27.17;;;5.32;;
11614;SDS011;5863;52.832;4.758;2023-01-04T03:48:00;25.70;;;5.15;;
11614;SDS011;5863;52.832;4.758;2023-01-04T03:50:50;28.15;;;5.30;;
11614;SDS011;5863;52.832;4.758;2023-01-04T03:53:23;25.45;;;4.45;;
11614;SDS011;5863;52.832;4.758;2023-01-04T03:55:52;20.00;;;4.55;;
11614;SDS011;5863;52.832;4.758;2023-01-04T03:58:20;27.15;;;4.97;;
11614;SDS011;5863;52.832;4.758;2023-01-04T04:00:47;20.73;;;4.82;;
11614;SDS011;5863;52.832;4.758;2023-01-04T04:03:14;21.95;;;4.13;;
11614;SDS011;5863;52.832;4.758;2023-01-04T04:05:41;20.52;;;4.15;;
11614;SDS011;5863;52.832;4.758;2023-01-04T04:08:29;21.65;;;4.20;;
11614;SDS011;5863;52.832;4.758;2023-01-04T04:10:56;15.23;;;3.83;;
11614;SDS011;5863;52.832;4.758;2023-01-04T04:13:45;15.52;;;3.75;;
11614;SDS011;5863;52.832;4.758;2023-01-04T04:16:12;14.65;;;4.15;;
11614;SDS011;5863;52.832;4.758;2023-01-04T04:18:39;22.40;;;4.13;;
11614;SDS011;5863;52.832;4.758;2023-01-04T04:21:06;14.52;;;3.47;;
11614;SDS011;5863;52.832;4.758;2023-01-04T04:23:34;19.60;;;4.90;;
11614;SDS011;5863;52.832;4.758;2023-01-04T04:26:00;20.48;;;3.80;;
11614;SDS011;5863;52.832;4.758;2023-01-04T04:28:27;24.20;;;4.65;;
11614;SDS011;5863;52.832;4.758;2023-01-04T04:30:54;22.48;;;4.70;;
11614;SDS011;5863;52.832;4.758;2023-01-04T04:33:20;21.33;;;4.05;;
11614;SDS011;5863;52.832;4.758;2023-01-04T04:35:48;24.85;;;4.70;;
11614;SDS011;5863;52.832;4.758;2023-01-04T04:38:16;22.02;;;4.50;;
11614;SDS011;5863;52.832;4.758;2023-01-04T04:40:44;20.83;;;3.90;;
11614;SDS011;5863;52.832;4.758;2023-01-04T04:43:29;19.30;;;4.05;;
11614;SDS011;5863;52.832;4.758;2023-01-04T04:45:57;21.25;;;4.50;;
11614;SDS011;5863;52.832;4.758;2023-01-04T04:48:24;20.40;;;4.03;;
11614;SDS011;5863;52.832;4.758;2023-01-04T04:50:51;17.95;;;3.75;;
11614;SDS011;5863;52.832;4.758;2023-01-04T04:53:17;19.58;;;3.95;;
11614;SDS011;5863;52.832;4.758;2023-01-04T04:55:45;16.55;;;4.13;;
11614;SDS011;5863;52.832;4.758;2023-01-04T04:58:12;27.42;;;4.63;;
11614;SDS011;5863;52.832;4.758;2023-01-04T05:00:39;29.73;;;4.78;;
11614;SDS011;5863;52.832;4.758;2023-01-04T05:03:06;28.38;;;5.38;;
11614;SDS011;5863;52.832;4.758;2023-01-04T05:05:32;33.13;;;5.07;;
11614;SDS011;5863;52.832;4.758;2023-01-04T05:07:59;33.58;;;5.75;;
11614;SDS011;5863;52.832;4.758;2023-01-04T05:10:26;36.50;;;5.57;;
11614;SDS011;5863;52.832;4.758;2023-01-04T05:12:54;39.13;;;5.72;;
11614;SDS011;5863;52.832;4.758;2023-01-04T05:15:26;36.72;;;6.05;;
11614;SDS011;5863;52.832;4.758;2023-01-04T05:17:53;39.65;;;6.25;;
11614;SDS011;5863;52.832;4.758;2023-01-04T05:20:20;28.13;;;6.25;;
11614;SDS011;5863;52.832;4.758;2023-01-04T05:22:47;42.70;;;6.60;;
11614;SDS011;5863;52.832;4.758;2023-01-04T05:25:14;43.25;;;7.07;;
11614;SDS011;5863;52.832;4.758;2023-01-04T05:27:41;37.78;;;6.05;;
11614;SDS011;5863;52.832;4.758;2023-01-04T05:30:10;34.42;;;6.05;;
11614;SDS011;5863;52.832;4.758;2023-01-04T05:32:56;36.72;;;6.43;;
11614;SDS011;5863;52.832;4.758;2023-01-04T05:35:23;36.47;;;6.20;;
11614;SDS011;5863;52.832;4.758;2023-01-04T05:37:50;36.90;;;6.85;;
11614;SDS011;5863;52.832;4.758;2023-01-04T05:40:17;48.65;;;7.82;;
11614;SDS011;5863;52.832;4.758;2023-01-04T05:42:43;43.00;;;6.38;;
11614;SDS011;5863;52.832;4.758;2023-01-04T05:45:13;42.40;;;6.82;;
11614;SDS011;5863;52.832;4.758;2023-01-04T05:47:40;47.58;;;6.75;;
11614;SDS011;5863;52.832;4.758;2023-01-04T05:50:07;37.67;;;6.78;;
11614;SDS011;5863;52.832;4.758;2023-01-04T05:52:35;48.00;;;6.45;;
11614;SDS011;5863;52.832;4.758;2023-01-04T05:55:02;43.55;;;6.97;;
11614;SDS011;5863;52.832;4.758;2023-01-04T05:57:29;34.17;;;6.22;;
11614;SDS011;5863;52.832;4.758;2023-01-04T05:59:56;35.88;;;6.35;;
11614;SDS011;5863;52.832;4.758;2023-01-04T06:02:24;35.38;;;5.65;;
11614;SDS011;5863;52.832;4.758;2023-01-04T06:04:53;29.38;;;5.15;;
11614;SDS011;5863;52.832;4.758;2023-01-04T06:07:19;42.97;;;6.22;;
11614;SDS011;5863;52.832;4.758;2023-01-04T06:09:46;29.38;;;4.85;;
11614;SDS011;5863;52.832;4.758;2023-01-04T06:12:13;25.52;;;5.07;;
11614;SDS011;5863;52.832;4.758;2023-01-04T06:14:40;33.15;;;5.18;;
11614;SDS011;5863;52.832;4.758;2023-01-04T06:17:07;36.47;;;6.63;;
11614;SDS011;5863;52.832;4.758;2023-01-04T06:19:35;25.20;;;4.25;;
11614;SDS011;5863;52.832;4.758;2023-01-04T06:22:02;27.13;;;5.20;;
11614;SDS011;5863;52.832;4.758;2023-01-04T06:24:28;30.70;;;5.13;;
11614;SDS011;5863;52.832;4.758;2023-01-04T06:26:55;29.23;;;5.03;;
11614;SDS011;5863;52.832;4.758;2023-01-04T06:29:22;36.00;;;5.65;;
11614;SDS011;5863;52.832;4.758;2023-01-04T06:31:49;40.58;;;5.93;;
11614;SDS011;5863;52.832;4.758;2023-01-04T06:34:15;34.97;;;5.43;;
11614;SDS011;5863;52.832;4.758;2023-01-04T06:36:43;27.65;;;5.55;;
11614;SDS011;5863;52.832;4.758;2023-01-04T06:39:10;35.03;;;6.28;;
11614;SDS011;5863;52.832;4.758;2023-01-04T06:41:38;30.15;;;6.13;;
11614;SDS011;5863;52.832;4.758;2023-01-04T06:44:05;31.63;;;5.93;;
11614;SDS011;5863;52.832;4.758;2023-01-04T06:46:32;36.45;;;5.70;;
11614;SDS011;5863;52.832;4.758;2023-01-04T06:48:58;32.67;;;5.97;;
11614;SDS011;5863;52.832;4.758;2023-01-04T06:51:25;43.38;;;6.00;;
11614;SDS011;5863;52.832;4.758;2023-01-04T06:53:53;31.35;;;6.50;;
11614;SDS011;5863;52.832;4.758;2023-01-04T06:56:20;39.92;;;6.57;;
11614;SDS011;5863;52.832;4.758;2023-01-04T06:58:46;36.88;;;6.78;;
11614;SDS011;5863;52.832;4.758;2023-01-04T07:01:13;42.63;;;6.07;;
11614;SDS011;5863;52.832;4.758;2023-01-04T07:03:40;34.30;;;6.32;;
11614;SDS011;5863;52.832;4.758;2023-01-04T07:06:06;36.45;;;6.55;;
11614;SDS011;5863;52.832;4.758;2023-01-04T07:08:34;35.03;;;6.18;;
11614;SDS011;5863;52.832;4.758;2023-01-04T07:11:02;39.42;;;6.28;;
11614;SDS011;5863;52.832;4.758;2023-01-04T07:13:29;40.40;;;6.93;;
11614;SDS011;5863;52.832;4.758;2023-01-04T07:15:56;37.83;;;7.38;;
11614;SDS011;5863;52.832;4.758;2023-01-04T07:18:23;37.20;;;6.93;;
11614;SDS011;5863;52.832;4.758;2023-01-04T07:20:50;53.33;;;7.88;;
11614;SDS011;5863;52.832;4.758;2023-01-04T07:23:16;49.22;;;8.05;;
11614;SDS011;5863;52.832;4.758;2023-01-04T07:25:43;42.60;;;6.35;;
11614;SDS011;5863;52.832;4.758;2023-01-04T07:28:11;46.92;;;6.80;;
11614;SDS011;5863;52.832;4.758;2023-01-04T07:30:57;42.97;;;8.13;;
11614;SDS011;5863;52.832;4.758;2023-01-04T07:33:28;46.13;;;7.18;;
11614;SDS011;5863;52.832;4.758;2023-01-04T07:35:55;36.60;;;6.50;;
11614;SDS011;5863;52.832;4.758;2023-01-04T07:38:27;44.85;;;6.75;;
11614;SDS011;5863;52.832;4.758;2023-01-04T07:40:53;36.78;;;7.13;;
11614;SDS011;5863;52.832;4.758;2023-01-04T07:43:21;34.75;;;6.22;;
11614;SDS011;5863;52.832;4.758;2023-01-04T07:45:48;32.08;;;6.32;;
11614;SDS011;5863;52.832;4.758;2023-01-04T07:48:15;39.92;;;6.30;;
11614;SDS011;5863;52.832;4.758;2023-01-04T07:50:41;36.00;;;6.57;;
11614;SDS011;5863;52.832;4.758;2023-01-04T07:53:09;40.70;;;7.20;;
11614;SDS011;5863;52.832;4.758;2023-01-04T07:55:36;39.22;;;7.13;;
11614;SDS011;5863;52.832;4.758;2023-01-04T07:58:03;40.85;;;6.03;;
11614;SDS011;5863;52.832;4.758;2023-01-04T08:00:31;42.72;;;7.10;;
11614;SDS011;5863;52.832;4.758;2023-01-04T08:02:58;35.58;;;6.72;;
11614;SDS011;5863;52.832;4.758;2023-01-04T08:05:24;45.85;;;7.78;;
11614;SDS011;5863;52.832;4.758;2023-01-04T08:07:53;47.42;;;7.38;;
11614;SDS011;5863;52.832;4.758;2023-01-04T08:10:20;50.38;;;6.82;;
11614;SDS011;5863;52.832;4.758;2023-01-04T08:12:46;48.53;;;6.47;;
11614;SDS011;5863;52.832;4.758;2023-01-04T08:15:13;33.80;;;6.47;;
11614;SDS011;5863;52.832;4.758;2023-01-04T08:17:41;38.42;;;6.85;;
11614;SDS011;5863;52.832;4.758;2023-01-04T08:20:08;34.30;;;6.65;;
11614;SDS011;5863;52.832;4.758;2023-01-04T08:22:35;39.50;;;6.63;;
11614;SDS011;5863;52.832;4.758;2023-01-04T08:25:02;40.00;;;6.25;;
11614;SDS011;5863;52.832;4.758;2023-01-04T08:27:31;35.47;;;5.88;;
11614;SDS011;5863;52.832;4.758;2023-01-04T08:29:57;40.25;;;6.80;;
11614;SDS011;5863;52.832;4.758;2023-01-04T08:32:24;38.55;;;6.32;;
11614;SDS011;5863;52.832;4.758;2023-01-04T08:34:52;35.88;;;6.95;;
11614;SDS011;5863;52.832;4.758;2023-01-04T08:37:19;39.15;;;6.90;;
11614;SDS011;5863;52.832;4.758;2023-01-04T08:39:46;46.53;;;7.53;;
11614;SDS011;5863;52.832;4.758;2023-01-04T08:42:13;39.20;;;7.50;;
11614;SDS011;5863;52.832;4.758;2023-01-04T08:44:40;39.53;;;6.30;;
11614;SDS011;5863;52.832;4.758;2023-01-04T08:47:07;37.83;;;7.18;;
11614;SDS011;5863;52.832;4.758;2023-01-04T08:49:34;38.50;;;6.10;;
11614;SDS011;5863;52.832;4.758;2023-01-04T08:52:01;37.42;;;6.38;;
11614;SDS011;5863;52.832;4.758;2023-01-04T08:54:28;34.42;;;6.07;;
11614;SDS011;5863;52.832;4.758;2023-01-04T08:56:55;44.30;;;6.57;;
11614;SDS011;5863;52.832;4.758;2023-01-04T08:59:22;36.58;;;7.35;;
11614;SDS011;5863;52.832;4.758;2023-01-04T09:01:49;37.55;;;6.30;;
11614;SDS011;5863;52.832;4.758;2023-01-04T09:04:16;41.88;;;6.85;;
11614;SDS011;5863;52.832;4.758;2023-01-04T09:06:43;36.55;;;6.72;;
11614;SDS011;5863;52.832;4.758;2023-01-04T09:09:12;44.28;;;6.68;;
11614;SDS011;5863;52.832;4.758;2023-01-04T09:11:39;35.65;;;6.32;;
11614;SDS011;5863;52.832;4.758;2023-01-04T09:14:06;28.23;;;6.35;;
11614;SDS011;5863;52.832;4.758;2023-01-04T09:16:34;39.47;;;7.35;;
11614;SDS011;5863;52.832;4.758;2023-01-04T09:19:01;43.83;;;6.97;;
11614;SDS011;5863;52.832;4.758;2023-01-04T09:21:28;35.47;;;7.72;;
11614;SDS011;5863;52.832;4.758;2023-01-04T09:23:56;38.55;;;7.05;;
11614;SDS011;5863;52.832;4.758;2023-01-04T09:26:24;46.10;;;7.15;;
11614;SDS011;5863;52.832;4.758;2023-01-04T09:28:52;47.25;;;7.70;;
11614;SDS011;5863;52.832;4.758;2023-01-04T09:31:20;46.63;;;7.63;;
11614;SDS011;5863;52.832;4.758;2023-01-04T09:33:48;45.78;;;7.47;;
11614;SDS011;5863;52.832;4.758;2023-01-04T09:36:16;37.95;;;6.95;;
11614;SDS011;5863;52.832;4.758;2023-01-04T09:38:45;43.05;;;7.93;;
11614;SDS011;5863;52.832;4.758;2023-01-04T09:41:14;50.38;;;8.18;;
11614;SDS011;5863;52.832;4.758;2023-01-04T09:43:50;47.20;;;7.30;;
11614;SDS011;5863;52.832;4.758;2023-01-04T09:46:22;53.28;;;8.85;;
11614;SDS011;5863;52.832;4.758;2023-01-04T09:48:54;46.58;;;7.90;;
11614;SDS011;5863;52.832;4.758;2023-01-04T09:51:27;46.58;;;8.55;;
11614;SDS011;5863;52.832;4.758;2023-01-04T09:54:00;49.63;;;8.15;;
11614;SDS011;5863;52.832;4.758;2023-01-04T09:56:32;42.63;;;8.73;;
11614;SDS011;5863;52.832;4.758;2023-01-04T09:59:04;51.83;;;8.75;;
11614;SDS011;5863;52.832;4.758;2023-01-04T10:01:38;50.63;;;8.20;;
11614;SDS011;5863;52.832;4.758;2023-01-04T10:04:12;48.95;;;8.65;;
11614;SDS011;5863;52.832;4.758;2023-01-04T10:06:43;53.92;;;9.02;;
11614;SDS011;5863;52.832;4.758;2023-01-04T10:09:11;49.47;;;8.52;;
11614;SDS011;5863;52.832;4.758;2023-01-04T10:11:44;47.50;;;9.02;;
11614;SDS011;5863;52.832;4.758;2023-01-04T10:14:29;41.38;;;6.85;;
11614;SDS011;5863;52.832;4.758;2023-01-04T10:17:18;32.95;;;7.32;;
11614;SDS011;5863;52.832;4.758;2023-01-04T10:19:56;39.92;;;7.32;;
11614;SDS011;5863;52.832;4.758;2023-01-04T10:22:37;39.97;;;7.47;;
11614;SDS011;5863;52.832;4.758;2023-01-04T10:25:19;39.00;;;7.40;;
11614;SDS011;5863;52.832;4.758;2023-01-04T10:27:54;40.78;;;7.93;;
11614;SDS011;5863;52.832;4.758;2023-01-04T10:30:33;31.17;;;6.05;;
11614;SDS011;5863;52.832;4.758;2023-01-04T10:33:10;34.20;;;7.28;;
11614;SDS011;5863;52.832;4.758;2023-01-04T10:35:38;45.95;;;7.68;;
11614;SDS011;5863;52.832;4.758;2023-01-04T10:38:10;35.92;;;7.05;;
11614;SDS011;5863;52.832;4.758;2023-01-04T10:40:41;36.10;;;6.60;;
11614;SDS011;5863;52.832;4.758;2023-01-04T10:43:13;33.53;;;6.03;;
11614;SDS011;5863;52.832;4.758;2023-01-04T10:45:53;36.42;;;6.68;;
11614;SDS011;5863;52.832;4.758;2023-01-04T10:48:26;34.97;;;6.35;;
11614;SDS011;5863;52.832;4.758;2023-01-04T10:50:59;29.85;;;6.20;;
11614;SDS011;5863;52.832;4.758;2023-01-04T10:53:27;34.47;;;6.50;;
11614;SDS011;5863;52.832;4.758;2023-01-04T10:56:00;34.08;;;6.50;;
11614;SDS011;5863;52.832;4.758;2023-01-04T10:58:35;38.53;;;7.00;;
11614;SDS011;5863;52.832;4.758;2023-01-04T11:01:08;25.85;;;5.45;;
11614;SDS011;5863;52.832;4.758;2023-01-04T11:03:55;27.77;;;6.15;;
11614;SDS011;5863;52.832;4.758;2023-01-04T11:06:27;37.10;;;6.50;;
11614;SDS011;5863;52.832;4.758;2023-01-04T11:08:59;29.02;;;5.70;;
11614;SDS011;5863;52.832;4.758;2023-01-04T11:11:29;26.15;;;6.78;;
11614;SDS011;5863;52.832;4.758;2023-01-04T11:13:59;24.92;;;5.93;;
11614;SDS011;5863;52.832;4.758;2023-01-04T11:16:28;29.90;;;5.93;;
11614;SDS011;5863;52.832;4.758;2023-01-04T11:18:56;37.35;;;6.75;;
11614;SDS011;5863;52.832;4.758;2023-01-04T11:21:24;28.38;;;5.13;;
11614;SDS011;5863;52.832;4.758;2023-01-04T11:26:35;25.60;;;5.30;;
11614;SDS011;5863;52.832;4.758;2023-01-04T11:29:06;27.50;;;5.20;;
11614;SDS011;5863;52.832;4.758;2023-01-04T11:31:52;28.13;;;5.53;;
11614;SDS011;5863;52.832;4.758;2023-01-04T11:34:36;23.77;;;5.40;;
11614;SDS011;5863;52.832;4.758;2023-01-04T11:37:21;24.73;;;4.85;;
11614;SDS011;5863;52.832;4.758;2023-01-04T11:39:50;24.95;;;5.28;;
11614;SDS011;5863;52.832;4.758;2023-01-04T11:42:19;24.60;;;5.15;;
11614;SDS011;5863;52.832;4.758;2023-01-04T11:44:56;24.58;;;5.07;;
11614;SDS011;5863;52.832;4.758;2023-01-04T11:47:25;21.45;;;4.70;;
11614;SDS011;5863;52.832;4.758;2023-01-04T11:49:52;22.98;;;5.45;;
11614;SDS011;5863;52.832;4.758;2023-01-04T11:52:27;31.65;;;6.18;;
11614;SDS011;5863;52.832;4.758;2023-01-04T11:54:55;29.48;;;5.50;;
11614;SDS011;5863;52.832;4.758;2023-01-04T11:57:22;34.30;;;5.80;;
11614;SDS011;5863;52.832;4.758;2023-01-04T11:59:57;31.80;;;5.20;;
11614;SDS011;5863;52.832;4.758;2023-01-04T12:02:34;29.83;;;5.50;;
11614;SDS011;5863;52.832;4.758;2023-01-04T12:05:01;27.70;;;5.82;;
11614;SDS011;5863;52.832;4.758;2023-01-04T12:07:37;31.27;;;6.25;;
11614;SDS011;5863;52.832;4.758;2023-01-04T12:10:11;26.73;;;5.65;;
11614;SDS011;5863;52.832;4.758;2023-01-04T12:12:45;30.30;;;5.70;;
11614;SDS011;5863;52.832;4.758;2023-01-04T12:15:13;31.23;;;6.18;;
11614;SDS011;5863;52.832;4.758;2023-01-04T12:17:51;29.63;;;6.10;;
11614;SDS011;5863;52.832;4.758;2023-01-04T12:20:21;33.55;;;6.32;;
11614;SDS011;5863;52.832;4.758;2023-01-04T12:22:52;33.25;;;5.80;;
11614;SDS011;5863;52.832;4.758;2023-01-04T12:25:22;34.60;;;6.18;;
11614;SDS011;5863;52.832;4.758;2023-01-04T12:27:55;33.75;;;6.43;;
11614;SDS011;5863;52.832;4.758;2023-01-04T12:30:33;29.77;;;6.00;;
11614;SDS011;5863;52.832;4.758;2023-01-04T12:36:03;29.00;;;5.35;;
11614;SDS011;5863;52.832;4.758;2023-01-04T12:47:40;27.50;;;5.72;;
11614;SDS011;5863;52.832;4.758;2023-01-04T12:50:25;26.00;;;5.13;;
11614;SDS011;5863;52.832;4.758;2023-01-04T12:52:55;32.53;;;6.35;;
11614;SDS011;5863;52.832;4.758;2023-01-04T12:58:39;31.00;;;6.25;;
11614;SDS011;5863;52.832;4.758;2023-01-04T13:01:30;33.35;;;6.22;;
11614;SDS011;5863;52.832;4.758;2023-01-04T13:03:57;30.30;;;5.35;;
11614;SDS011;5863;52.832;4.758;2023-01-04T13:06:27;20.45;;;5.05;;
11614;SDS011;5863;52.832;4.758;2023-01-04T13:08:59;29.80;;;5.32;;
11614;SDS011;5863;52.832;4.758;2023-01-04T13:14:26;30.17;;;5.53;;
11614;SDS011;5863;52.832;4.758;2023-01-04T13:17:02;38.58;;;5.63;;
11614;SDS011;5863;52.832;4.758;2023-01-04T13:19:39;41.03;;;7.00;;
11614;SDS011;5863;52.832;4.758;2023-01-04T13:22:09;26.63;;;4.93;;
11614;SDS011;5863;52.832;4.758;2023-01-04T13:24:43;25.13;;;5.47;;
11614;SDS011;5863;52.832;4.758;2023-01-04T13:27:14;30.88;;;6.10;;
11614;SDS011;5863;52.832;4.758;2023-01-04T13:29:43;38.15;;;6.28;;
11614;SDS011;5863;52.832;4.758;2023-01-04T13:32:10;44.60;;;6.40;;
11614;SDS011;5863;52.832;4.758;2023-01-04T13:34:49;33.35;;;5.05;;
11614;SDS011;5863;52.832;4.758;2023-01-04T13:37:24;28.55;;;5.75;;
11614;SDS011;5863;52.832;4.758;2023-01-04T13:42:54;35.75;;;5.93;;
11614;SDS011;5863;52.832;4.758;2023-01-04T13:45:41;32.88;;;5.22;;
11614;SDS011;5863;52.832;4.758;2023-01-04T13:48:16;26.98;;;5.55;;
11614;SDS011;5863;52.832;4.758;2023-01-04T13:50:45;29.90;;;5.35;;
11614;SDS011;5863;52.832;4.758;2023-01-04T13:53:25;26.35;;;5.50;;
11614;SDS011;5863;52.832;4.758;2023-01-04T13:55:55;27.90;;;6.10;;
11614;SDS011;5863;52.832;4.758;2023-01-04T13:58:23;29.48;;;6.15;;
11614;SDS011;5863;52.832;4.758;2023-01-04T14:00:52;26.63;;;5.38;;
11614;SDS011;5863;52.832;4.758;2023-01-04T14:03:26;27.35;;;5.25;;
11614;SDS011;5863;52.832;4.758;2023-01-04T14:05:58;30.90;;;5.75;;
11614;SDS011;5863;52.832;4.758;2023-01-04T14:08:38;29.77;;;6.00;;
11614;SDS011;5863;52.832;4.758;2023-01-04T14:11:14;21.88;;;4.13;;
11614;SDS011;5863;52.832;4.758;2023-01-04T14:14:14;18.00;;;4.65;;
11614;SDS011;5863;52.832;4.758;2023-01-04T14:17:22;25.10;;;5.05;;
11614;SDS011;5863;52.832;4.758;2023-01-04T14:19:57;28.65;;;5.43;;
11614;SDS011;5863;52.832;4.758;2023-01-04T14:22:32;29.42;;;5.80;;
11614;SDS011;5863;52.832;4.758;2023-01-04T14:28:19;21.42;;;5.00;;
11614;SDS011;5863;52.832;4.758;2023-01-04T14:34:06;28.05;;;5.15;;
11614;SDS011;5863;52.832;4.758;2023-01-04T14:36:36;29.27;;;5.45;;
11614;SDS011;5863;52.832;4.758;2023-01-04T14:39:16;29.30;;;6.22;;
11614;SDS011;5863;52.832;4.758;2023-01-04T14:41:52;31.83;;;5.82;;
11614;SDS011;5863;52.832;4.758;2023-01-04T14:44:23;23.63;;;5.35;;
11614;SDS011;5863;52.832;4.758;2023-01-04T14:46:54;30.60;;;6.07;;
11614;SDS011;5863;52.832;4.758;2023-01-04T14:49:22;34.40;;;5.50;;
11614;SDS011;5863;52.832;4.758;2023-01-04T14:51:51;36.65;;;6.18;;
11614;SDS011;5863;52.832;4.758;2023-01-04T14:54:19;28.75;;;5.25;;
11614;SDS011;5863;52.832;4.758;2023-01-04T14:56:48;42.20;;;6.63;;
11614;SDS011;5863;52.832;4.758;2023-01-04T14:59:14;36.47;;;7.18;;
11614;SDS011;5863;52.832;4.758;2023-01-04T15:01:42;33.53;;;6.18;;
11614;SDS011;5863;52.832;4.758;2023-01-04T15:04:09;34.65;;;6.28;;
11614;SDS011;5863;52.832;4.758;2023-01-04T15:06:39;25.42;;;5.90;;
11614;SDS011;5863;52.832;4.758;2023-01-04T15:09:12;36.97;;;6.18;;
11614;SDS011;5863;52.832;4.758;2023-01-04T15:11:39;31.38;;;5.70;;
11614;SDS011;5863;52.832;4.758;2023-01-04T15:14:05;35.42;;;5.85;;
11614;SDS011;5863;52.832;4.758;2023-01-04T15:16:32;29.95;;;6.07;;
11614;SDS011;5863;52.832;4.758;2023-01-04T15:19:00;34.25;;;5.50;;
11614;SDS011;5863;52.832;4.758;2023-01-04T15:21:27;34.42;;;5.82;;
11614;SDS011;5863;52.832;4.758;2023-01-04T15:23:54;32.58;;;7.07;;
11614;SDS011;5863;52.832;4.758;2023-01-04T15:26:21;28.02;;;5.35;;
11614;SDS011;5863;52.832;4.758;2023-01-04T15:28:48;34.40;;;6.05;;
11614;SDS011;5863;52.832;4.758;2023-01-04T15:31:15;30.90;;;5.93;;
11614;SDS011;5863;52.832;4.758;2023-01-04T15:33:41;32.17;;;6.15;;
11614;SDS011;5863;52.832;4.758;2023-01-04T15:36:11;30.48;;;6.38;;
11614;SDS011;5863;52.832;4.758;2023-01-04T15:38:40;34.70;;;5.68;;
11614;SDS011;5863;52.832;4.758;2023-01-04T15:41:07;29.92;;;5.60;;
11614;SDS011;5863;52.832;4.758;2023-01-04T15:43:57;32.08;;;5.50;;
11614;SDS011;5863;52.832;4.758;2023-01-04T15:46:23;28.02;;;5.95;;
11614;SDS011;5863;52.832;4.758;2023-01-04T15:48:49;36.85;;;5.90;;
11614;SDS011;5863;52.832;4.758;2023-01-04T15:51:17;30.05;;;6.18;;